createdAt,value
2023-04-23T00:00:13.401Z,12.10
2023-04-23T00:02:46.879Z,12.10
2023-04-23T00:05:16.793Z,12.10
2023-04-23T00:07:45.872Z,12.10
2023-04-23T00:10:14.983Z,12.00
2023-04-23T00:12:44.043Z,12.00
2023-04-23T00:15:15.636Z,12.00
2023-04-23T00:17:44.267Z,12.00
2023-04-23T00:20:12.971Z,12.00
2023-04-23T00:22:41.585Z,11.90
2023-04-23T00:25:10.961Z,11.90
2023-04-23T00:27:39.559Z,11.90
2023-04-23T00:30:09.129Z,11.90
2023-04-23T00:32:39.178Z,11.90
2023-04-23T00:35:08.878Z,11.90
2023-04-23T00:37:37.519Z,11.80
2023-04-23T00:40:07.707Z,11.80
2023-04-23T00:42:37.311Z,11.80
2023-04-23T00:45:08.588Z,11.80
2023-04-23T00:47:38.713Z,11.80
2023-04-23T00:50:09.689Z,11.80
2023-04-23T00:52:40.814Z,11.70
2023-04-23T00:55:10.020Z,11.70
2023-04-23T00:57:39.494Z,11.70
2023-04-23T01:00:09.428Z,11.70
2023-04-23T01:02:39.621Z,11.70
2023-04-23T01:05:10.096Z,11.70
2023-04-23T01:07:38.874Z,11.60
2023-04-23T01:10:09.120Z,11.60
2023-04-23T01:12:37.842Z,11.60
2023-04-23T01:15:07.789Z,11.50
2023-04-23T01:17:37.052Z,11.50
2023-04-23T01:20:09.623Z,11.50
2023-04-23T01:22:40.114Z,11.40
2023-04-23T01:25:10.321Z,11.40
2023-04-23T01:27:39.770Z,11.40
2023-04-23T01:30:09.807Z,11.30
2023-04-23T01:32:39.745Z,11.30
2023-04-23T01:35:09.232Z,11.30
2023-04-23T01:37:40.335Z,11.20
2023-04-23T01:40:10.164Z,11.20
2023-04-23T01:42:39.731Z,11.20
2023-04-23T01:45:10.086Z,11.20
2023-04-23T01:47:39.097Z,11.10
2023-04-23T01:50:09.042Z,11.10
2023-04-23T01:52:44.749Z,11.10
2023-04-23T01:55:14.218Z,11.00
2023-04-23T01:57:42.955Z,11.00
2023-04-23T02:00:13.207Z,11.00
2023-04-23T02:02:44.288Z,10.90
2023-04-23T02:05:15.051Z,10.90
2023-04-23T02:07:45.976Z,10.90
2023-04-23T02:10:16.598Z,10.90
2023-04-23T02:12:45.812Z,10.90
2023-04-23T02:15:15.710Z,10.80
2023-04-23T02:17:44.717Z,10.80
2023-04-23T02:20:13.905Z,10.80
2023-04-23T02:22:44.625Z,10.80
2023-04-23T02:25:15.721Z,10.70
2023-04-23T02:27:44.300Z,10.70
2023-04-23T02:30:13.379Z,10.70
2023-04-23T02:32:43.026Z,10.70
2023-04-23T02:35:12.789Z,10.70
2023-04-23T02:37:43.785Z,10.70
2023-04-23T02:40:13.254Z,10.70
2023-04-23T02:42:43.848Z,10.70
2023-04-23T02:45:13.157Z,10.60
2023-04-23T02:47:41.835Z,10.60
2023-04-23T02:50:11.169Z,10.60
2023-04-23T02:52:39.865Z,10.60
2023-04-23T02:55:10.915Z,10.50
2023-04-23T02:57:39.778Z,10.50
2023-04-23T03:00:11.592Z,10.50
2023-04-23T03:02:43.315Z,10.50
2023-04-23T03:05:12.766Z,10.50
2023-04-23T03:07:41.506Z,10.40
2023-04-23T03:10:12.152Z,10.40
2023-04-23T03:12:40.903Z,10.40
2023-04-23T03:15:11.701Z,10.40
2023-04-23T03:17:40.721Z,10.40
2023-04-23T03:20:11.760Z,10.30
2023-04-23T03:22:41.408Z,10.30
2023-04-23T03:25:12.072Z,10.30
2023-04-23T03:27:41.391Z,10.30
2023-04-23T03:30:11.355Z,10.30
2023-04-23T03:32:40.175Z,10.30
2023-04-23T03:35:10.141Z,10.40
2023-04-23T03:37:42.374Z,10.40
2023-04-23T03:40:12.940Z,10.40
2023-04-23T03:42:43.444Z,10.40
2023-04-23T03:45:16.649Z,10.40
2023-04-23T03:47:45.510Z,10.50
2023-04-23T03:50:14.339Z,10.50
2023-04-23T03:52:45.213Z,10.50
2023-04-23T03:55:23.278Z,10.60
2023-04-23T03:57:52.099Z,10.60
2023-04-23T04:00:24.345Z,10.60
2023-04-23T04:02:53.125Z,10.70
2023-04-23T04:05:24.737Z,10.70
2023-04-23T04:07:55.731Z,10.70
2023-04-23T04:10:27.392Z,10.70
2023-04-23T04:12:56.213Z,10.80
2023-04-23T04:15:25.265Z,10.80
2023-04-23T04:17:53.956Z,10.80
2023-04-23T04:20:22.603Z,10.80
2023-04-23T04:22:51.123Z,10.90
2023-04-23T04:25:19.679Z,10.90
2023-04-23T04:27:49.980Z,10.90
2023-04-23T04:30:18.682Z,10.90
2023-04-23T04:32:47.382Z,10.90
2023-04-23T04:35:16.443Z,11.00
2023-04-23T04:37:45.113Z,10.90
2023-04-23T04:40:15.286Z,10.90
2023-04-23T04:42:44.138Z,10.90
2023-04-23T04:45:14.261Z,11.00
2023-04-23T04:47:42.910Z,11.00
2023-04-23T04:50:12.352Z,11.00
2023-04-23T04:52:40.968Z,11.00
2023-04-23T04:55:10.680Z,11.00
2023-04-23T04:57:39.334Z,11.10
2023-04-23T05:00:23.678Z,11.10
2023-04-23T05:02:52.741Z,11.10
2023-04-23T05:05:22.756Z,11.10
2023-04-23T05:07:51.817Z,11.20
2023-04-23T05:10:20.795Z,11.20
2023-04-23T05:12:51.765Z,11.30
2023-04-23T05:15:21.870Z,11.30
2023-04-23T05:17:53.355Z,11.40
2023-04-23T05:20:22.726Z,11.40
2023-04-23T05:22:51.413Z,11.40
2023-04-23T05:25:19.995Z,11.50
2023-04-23T05:27:48.655Z,11.60
2023-04-23T05:30:17.311Z,11.60
2023-04-23T05:32:47.555Z,11.70
2023-04-23T05:35:16.395Z,11.70
2023-04-23T05:37:44.933Z,11.70
2023-04-23T05:40:13.698Z,11.70
2023-04-23T05:42:42.358Z,11.80
2023-04-23T05:45:12.057Z,11.80
2023-04-23T05:47:40.717Z,11.80
2023-04-23T05:50:12.338Z,11.80
2023-04-23T05:52:41.026Z,11.90
2023-04-23T05:55:10.565Z,12.00
2023-04-23T05:57:39.864Z,12.10
2023-04-23T06:00:11.698Z,12.20
2023-04-23T06:02:43.694Z,12.30
2023-04-23T06:05:14.155Z,12.40
2023-04-23T06:07:43.519Z,12.40
2023-04-23T06:10:13.078Z,12.50
2023-04-23T06:12:42.357Z,12.50
2023-04-23T06:15:11.729Z,12.50
2023-04-23T06:17:41.154Z,12.50
2023-04-23T06:20:11.836Z,12.60
2023-04-23T06:22:41.971Z,12.60
2023-04-23T06:25:11.050Z,12.60
2023-04-23T06:27:39.581Z,12.60
2023-04-23T06:30:15.373Z,12.60
2023-04-23T06:32:44.004Z,12.70
2023-04-23T06:35:12.635Z,12.70
2023-04-23T06:37:42.578Z,12.80
2023-04-23T06:40:11.849Z,12.80
2023-04-23T06:42:40.535Z,12.80
2023-04-23T06:45:21.214Z,12.80
2023-04-23T06:47:50.898Z,12.80
2023-04-23T06:50:19.631Z,12.80
2023-04-23T06:52:49.647Z,12.80
2023-04-23T06:55:18.326Z,12.80
2023-04-23T06:57:46.881Z,12.80
2023-04-23T07:00:16.116Z,12.80
2023-04-23T07:02:46.421Z,12.80
2023-04-23T07:05:15.537Z,12.80
2023-04-23T07:07:44.139Z,12.80
2023-04-23T07:10:16.287Z,12.80
2023-04-23T07:12:47.125Z,12.90
2023-04-23T07:15:15.848Z,13.00
2023-04-23T07:17:44.651Z,13.10
2023-04-23T07:20:13.263Z,13.10
2023-04-23T07:22:41.841Z,13.20
2023-04-23T07:25:10.783Z,13.40
2023-04-23T07:27:40.713Z,13.50
2023-04-23T07:30:10.245Z,13.60
2023-04-23T07:32:38.861Z,13.80
2023-04-23T07:35:09.820Z,14.00
2023-04-23T07:37:38.719Z,14.10
2023-04-23T07:40:09.148Z,14.30
2023-04-23T07:42:37.771Z,14.40
2023-04-23T07:45:08.970Z,14.50
2023-04-23T07:47:37.761Z,14.60
2023-04-23T07:50:07.590Z,14.70
2023-04-23T07:52:36.224Z,14.80
2023-04-23T07:55:05.215Z,14.90
2023-04-23T07:57:33.893Z,15.00
2023-04-23T08:00:02.398Z,15.10
2023-04-23T08:02:41.890Z,15.20
2023-04-23T08:05:11.140Z,15.20
2023-04-23T08:07:39.930Z,15.30
2023-04-23T08:10:09.718Z,15.40
2023-04-23T08:12:38.447Z,15.60
2023-04-23T08:15:07.831Z,15.80
2023-04-23T08:17:42.481Z,15.90
2023-04-23T08:20:11.906Z,16.00
2023-04-23T08:22:40.592Z,16.10
2023-04-23T08:25:10.180Z,16.20
2023-04-23T08:27:38.797Z,16.20
2023-04-23T08:30:08.728Z,16.20
2023-04-23T08:32:37.442Z,16.20
2023-04-23T08:35:08.087Z,16.20
2023-04-23T08:37:36.675Z,16.10
2023-04-23T08:40:07.472Z,16.10
2023-04-23T08:42:42.754Z,16.10
2023-04-23T08:45:12.545Z,16.20
2023-04-23T08:47:43.475Z,16.20
2023-04-23T08:50:15.141Z,16.40
2023-04-23T08:52:47.912Z,16.50
2023-04-23T08:55:18.728Z,16.70
2023-04-23T08:57:48.038Z,16.90
2023-04-23T09:00:18.274Z,17.00
2023-04-23T09:02:49.055Z,17.20
2023-04-23T09:05:19.741Z,17.30
2023-04-23T09:07:48.322Z,17.50
2023-04-23T09:10:18.453Z,17.50
2023-04-23T09:12:48.357Z,17.50
2023-04-23T09:15:17.911Z,17.60
2023-04-23T09:17:48.329Z,17.60
2023-04-23T09:20:17.644Z,17.70
2023-04-23T09:22:49.081Z,17.80
2023-04-23T09:25:19.079Z,17.80
2023-04-23T09:27:48.145Z,17.70
2023-04-23T09:30:20.362Z,17.80
2023-04-23T09:32:49.522Z,17.70
2023-04-23T09:35:19.954Z,17.70
2023-04-23T09:37:52.401Z,17.70
2023-04-23T09:40:24.135Z,17.70
2023-04-23T09:42:54.608Z,17.60
2023-04-23T09:45:25.110Z,17.60
2023-04-23T09:47:55.551Z,17.60
2023-04-23T09:50:34.806Z,17.50
2023-04-23T09:53:04.846Z,17.50
2023-04-23T09:55:37.409Z,17.60
2023-04-23T09:58:07.520Z,17.60
2023-04-23T10:00:38.688Z,17.60
2023-04-23T10:03:08.635Z,17.60
2023-04-23T10:05:59.703Z,17.60
2023-04-23T10:08:32.889Z,17.70
2023-04-23T10:11:14.057Z,17.80
2023-04-23T10:13:49.051Z,18.00
2023-04-23T10:16:23.257Z,18.10
2023-04-23T10:18:55.591Z,18.20
2023-04-23T10:21:32.141Z,18.30
2023-04-23T10:24:11.990Z,18.30
2023-04-23T10:26:43.152Z,18.20
2023-04-23T10:29:15.874Z,18.10
2023-04-23T10:31:44.780Z,18.10
2023-04-23T10:34:14.026Z,18.00
2023-04-23T10:36:42.853Z,18.10
2023-04-23T10:39:20.836Z,18.20
2023-04-23T10:41:56.829Z,18.30
2023-04-23T10:44:56.778Z,18.30
2023-04-23T10:47:22.901Z,18.20
2023-04-23T10:49:53.464Z,18.10
2023-04-23T10:52:25.243Z,18.10
2023-04-23T10:55:00.776Z,18.10
2023-04-23T10:57:29.510Z,18.10
2023-04-23T10:59:58.932Z,18.10
2023-04-23T11:02:44.641Z,18.10
2023-04-23T11:05:13.332Z,18.10
2023-04-23T11:07:41.990Z,18.10
2023-04-23T11:10:16.148Z,18.00
2023-04-23T11:12:45.806Z,18.00
2023-04-23T11:15:16.076Z,18.00
2023-04-23T11:18:00.783Z,18.10
2023-04-23T11:20:29.415Z,18.10
2023-04-23T11:22:58.017Z,18.10
2023-04-23T11:25:30.328Z,18.20
2023-04-23T11:27:59.493Z,18.10
2023-04-23T11:30:29.515Z,18.20
2023-04-23T11:33:00.019Z,18.20
2023-04-23T11:35:30.477Z,18.30
2023-04-23T11:37:59.172Z,18.40
2023-04-23T11:40:30.962Z,18.60
2023-04-23T11:42:59.607Z,18.70
2023-04-23T11:45:29.899Z,18.70
2023-04-23T11:47:59.940Z,18.80
2023-04-23T11:50:33.005Z,18.80
2023-04-23T11:53:06.480Z,18.90
2023-04-23T11:55:36.643Z,18.90
2023-04-23T11:58:05.812Z,18.90
2023-04-23T12:00:34.418Z,18.90
2023-04-23T12:03:04.706Z,19.00
2023-04-23T12:05:36.800Z,19.00
2023-04-23T12:08:09.954Z,19.00
2023-04-23T12:10:53.131Z,19.10
2023-04-23T12:13:27.933Z,19.10
2023-04-23T12:15:58.188Z,19.20
2023-04-23T12:18:29.233Z,19.30
2023-04-23T12:20:57.817Z,19.40
2023-04-23T12:23:29.659Z,19.50
2023-04-23T12:25:59.651Z,19.60
2023-04-23T12:28:28.846Z,19.70
2023-04-23T12:31:02.031Z,19.80
2023-04-23T12:33:31.115Z,19.90
2023-04-23T12:36:00.861Z,20.00
2023-04-23T12:38:30.705Z,20.00
2023-04-23T12:41:01.886Z,20.00
2023-04-23T12:43:30.621Z,19.80
2023-04-23T12:45:59.710Z,19.70
2023-04-23T12:48:28.208Z,19.60
2023-04-23T12:50:56.943Z,19.60
2023-04-23T12:53:25.588Z,19.50
2023-04-23T12:55:54.119Z,19.50
2023-04-23T12:58:25.335Z,19.50
2023-04-23T13:00:54.669Z,19.60
2023-04-23T13:03:24.730Z,19.60
2023-04-23T13:05:54.219Z,19.60
2023-04-23T13:08:22.814Z,19.50
2023-04-23T13:10:51.458Z,19.50
2023-04-23T13:13:19.957Z,19.40
2023-04-23T13:15:49.826Z,19.40
2023-04-23T13:18:18.478Z,19.30
2023-04-23T13:20:47.319Z,19.20
2023-04-23T13:23:15.853Z,19.10
2023-04-23T13:25:44.452Z,19.00
2023-04-23T13:28:13.043Z,18.80
2023-04-23T13:30:41.680Z,18.70
2023-04-23T13:33:11.619Z,18.60
2023-04-23T13:35:40.382Z,18.50
2023-04-23T13:38:09.276Z,18.40
2023-04-23T13:40:38.038Z,18.30
2023-04-23T13:43:06.524Z,18.10
2023-04-23T13:45:35.114Z,17.90
2023-04-23T13:48:25.768Z,17.70
2023-04-23T13:51:02.268Z,17.50
2023-04-23T13:53:30.853Z,17.40
2023-04-23T13:56:01.038Z,17.20
2023-04-23T13:58:29.714Z,17.10
2023-04-23T14:00:58.335Z,17.10
2023-04-23T14:03:26.853Z,17.10
2023-04-23T14:05:55.482Z,17.00
2023-04-23T14:08:25.460Z,17.00
2023-04-23T14:10:54.081Z,17.00
2023-04-23T14:13:24.031Z,16.90
2023-04-23T14:15:52.718Z,16.90
2023-04-23T14:18:21.362Z,16.90
2023-04-23T14:20:50.035Z,16.90
2023-04-23T14:23:45.647Z,16.80
2023-04-23T14:26:25.122Z,16.90
2023-04-23T14:28:59.018Z,16.80
2023-04-23T14:31:27.619Z,16.80
2023-04-23T14:33:58.752Z,16.80
2023-04-23T14:36:27.434Z,16.80
2023-04-23T14:38:58.998Z,16.90
2023-04-23T14:41:27.621Z,17.00
2023-04-23T14:43:57.366Z,17.00
2023-04-23T14:46:26.160Z,17.00
2023-04-23T14:48:54.765Z,17.10
2023-04-23T14:51:23.871Z,17.10
2023-04-23T14:53:54.720Z,17.10
2023-04-23T14:56:27.533Z,17.10
2023-04-23T14:58:57.533Z,17.10
2023-04-23T15:01:26.203Z,17.10
2023-04-23T15:03:54.848Z,17.10
2023-04-23T15:06:23.768Z,17.00
2023-04-23T15:08:52.320Z,16.90
2023-04-23T15:11:20.914Z,17.00
2023-04-23T15:14:04.343Z,16.90
2023-04-23T15:19:10.067Z,17.00
2023-04-23T15:21:39.135Z,17.00
2023-04-23T15:24:08.381Z,17.00
2023-04-23T15:26:38.001Z,17.00
2023-04-23T15:29:09.054Z,17.00
2023-04-23T15:31:40.711Z,16.90
2023-04-23T15:34:09.720Z,16.90
2023-04-23T15:36:38.529Z,16.90
2023-04-23T15:39:07.867Z,16.80
2023-04-23T15:41:40.202Z,16.70
2023-04-23T15:44:12.544Z,16.70
2023-04-23T15:46:41.548Z,16.60
2023-04-23T15:49:10.150Z,16.50
2023-04-23T15:51:38.986Z,16.40
2023-04-23T15:54:09.068Z,16.40
2023-04-23T15:56:37.939Z,16.30
2023-04-23T15:59:08.540Z,16.30
2023-04-23T16:01:38.530Z,16.30
2023-04-23T16:04:11.043Z,16.40
2023-04-23T16:06:40.688Z,16.40
2023-04-23T16:09:09.374Z,16.30
2023-04-23T16:11:38.961Z,16.00
2023-04-23T16:14:09.354Z,15.80
2023-04-23T16:16:39.606Z,15.50
2023-04-23T16:19:08.773Z,15.40
2023-04-23T16:21:37.437Z,15.20
2023-04-23T16:24:07.460Z,15.00
2023-04-23T16:26:36.447Z,14.80
2023-04-23T16:29:20.851Z,14.70
2023-04-23T16:31:51.961Z,14.60
2023-04-23T16:34:20.543Z,14.50
2023-04-23T16:36:49.202Z,14.40
2023-04-23T16:39:17.795Z,14.30
2023-04-23T16:41:46.373Z,14.30
2023-04-23T16:44:14.990Z,14.20
2023-04-23T16:46:44.047Z,14.10
2023-04-23T16:49:14.298Z,14.10
2023-04-23T16:51:44.844Z,14.00
2023-04-23T16:54:13.438Z,14.00
2023-04-23T16:56:42.243Z,14.00
2023-04-23T16:59:10.985Z,13.90
2023-04-23T17:01:39.702Z,13.90
2023-04-23T17:04:08.389Z,14.00
2023-04-23T17:06:38.607Z,13.90
2023-04-23T17:09:08.650Z,13.90
2023-04-23T17:11:37.174Z,13.90
2023-04-23T17:14:05.956Z,13.80
2023-04-23T17:16:34.559Z,13.80
2023-04-23T17:19:03.164Z,13.80
2023-04-23T17:21:32.309Z,13.70
2023-04-23T17:24:02.616Z,13.70
2023-04-23T17:26:31.231Z,13.70
2023-04-23T17:28:59.864Z,13.70
2023-04-23T17:31:28.408Z,13.70
2023-04-23T17:33:58.242Z,13.70
2023-04-23T17:36:26.881Z,13.70
2023-04-23T17:38:55.591Z,13.80
2023-04-23T17:41:25.528Z,13.70
2023-04-23T17:43:54.319Z,13.60
2023-04-23T17:46:22.987Z,13.50
2023-04-23T17:48:52.193Z,13.50
2023-04-23T17:51:21.541Z,13.50
2023-04-23T17:53:50.921Z,13.60
2023-04-23T17:56:19.599Z,13.60
2023-04-23T17:58:49.436Z,13.60
2023-04-23T18:01:18.315Z,13.60
2023-04-23T18:03:48.137Z,13.50
2023-04-23T18:06:16.907Z,13.50
2023-04-23T18:08:45.507Z,13.50
2023-04-23T18:11:14.052Z,13.50
2023-04-23T18:13:43.351Z,13.50
2023-04-23T18:16:13.356Z,13.50
2023-04-23T18:18:41.940Z,13.60
2023-04-23T18:21:10.541Z,13.60
2023-04-23T18:23:39.689Z,13.50
2023-04-23T18:26:08.358Z,13.50
2023-04-23T18:28:37.164Z,13.50
2023-04-23T18:31:05.900Z,13.50
2023-04-23T18:33:44.240Z,13.70
2023-04-23T18:36:22.123Z,13.60
2023-04-23T18:38:50.761Z,13.60
2023-04-23T18:41:19.360Z,13.50
2023-04-23T18:43:47.959Z,13.50
2023-04-23T18:46:17.098Z,13.50
2023-04-23T18:48:58.143Z,13.50
2023-04-23T18:51:31.616Z,13.60
2023-04-23T18:54:01.593Z,13.50
2023-04-23T18:56:30.458Z,13.50
2023-04-23T18:58:58.983Z,13.60
2023-04-23T19:01:28.532Z,13.50
2023-04-23T19:03:58.614Z,13.50
2023-04-23T19:06:28.007Z,13.40
2023-04-23T19:08:57.020Z,13.40
2023-04-23T19:11:26.982Z,13.40
2023-04-23T19:13:55.487Z,13.30
2023-04-23T19:16:24.132Z,13.40
2023-04-23T19:18:52.846Z,13.30
2023-04-23T19:21:22.974Z,13.20
2023-04-23T19:23:51.799Z,13.20
2023-04-23T19:26:20.496Z,13.20
2023-04-23T19:28:49.027Z,13.20
2023-04-23T19:31:17.756Z,13.20
2023-04-23T19:33:47.615Z,13.20
2023-04-23T19:36:16.223Z,13.20
2023-04-23T19:38:46.469Z,13.20
2023-04-23T19:41:15.040Z,13.20
2023-04-23T19:43:43.600Z,13.10
2023-04-23T19:46:12.179Z,13.10
2023-04-23T19:48:40.754Z,13.10
2023-04-23T19:51:09.292Z,13.10
2023-04-23T19:53:37.879Z,13.10
2023-04-23T19:56:12.800Z,13.20
2023-04-23T19:58:42.524Z,13.20
2023-04-23T20:01:13.094Z,13.20
2023-04-23T20:03:43.018Z,13.20
2023-04-23T20:06:12.295Z,13.20
2023-04-23T20:09:02.570Z,13.20
2023-04-23T20:11:32.943Z,13.10
2023-04-23T20:14:01.744Z,13.00
2023-04-23T20:16:30.660Z,13.00
2023-04-23T20:18:59.760Z,13.10
2023-04-23T20:21:28.280Z,12.90
2023-04-23T20:23:59.819Z,12.90
2023-04-23T20:26:28.695Z,12.90
2023-04-23T20:28:58.890Z,12.90
2023-04-23T20:31:27.428Z,12.90
2023-04-23T20:33:58.953Z,13.00
2023-04-23T20:36:31.521Z,12.90
2023-04-23T20:39:03.169Z,12.90
2023-04-23T20:41:34.433Z,12.90
2023-04-23T20:44:05.421Z,12.90
2023-04-23T20:46:34.234Z,12.80
2023-04-23T20:49:03.301Z,12.80
2023-04-23T20:51:34.226Z,12.80
2023-04-23T20:54:03.237Z,12.80
2023-04-23T20:56:32.420Z,12.80
2023-04-23T20:59:01.200Z,12.80
2023-04-23T21:01:31.359Z,12.70
2023-04-23T21:04:01.789Z,12.70
2023-04-23T21:06:31.455Z,12.60
2023-04-23T21:09:00.464Z,12.60
2023-04-23T21:11:31.049Z,12.60
2023-04-23T21:14:00.908Z,12.60
2023-04-23T21:16:30.937Z,12.50
2023-04-23T21:18:59.571Z,12.50
2023-04-23T21:21:29.681Z,12.50
2023-04-23T21:23:59.633Z,12.50
2023-04-23T21:26:28.809Z,12.40
2023-04-23T21:28:57.696Z,12.40
2023-04-23T21:31:36.654Z,12.40
2023-04-23T21:34:05.236Z,12.40
2023-04-23T21:36:33.764Z,12.40
2023-04-23T21:39:02.902Z,12.30
2023-04-23T21:41:31.639Z,12.30
2023-04-23T21:44:00.290Z,12.30
2023-04-23T21:46:30.284Z,12.30
2023-04-23T21:49:00.533Z,12.20
2023-04-23T21:51:29.811Z,12.20
2023-04-23T21:53:58.485Z,12.10
2023-04-23T21:56:27.100Z,12.10
2023-04-23T21:58:55.846Z,12.10
2023-04-23T22:01:24.471Z,12.00
2023-04-23T22:03:53.139Z,12.00
2023-04-23T22:06:23.367Z,12.00
2023-04-23T22:08:52.418Z,11.90
2023-04-23T22:11:21.056Z,11.90
2023-04-23T22:13:49.591Z,11.90
2023-04-23T22:16:27.989Z,11.80
2023-04-23T22:18:57.973Z,11.70
2023-04-23T22:21:28.344Z,11.70
2023-04-23T22:23:57.050Z,11.70
2023-04-23T22:26:25.648Z,11.60
2023-04-23T22:28:54.209Z,11.60
2023-04-23T22:31:23.045Z,11.60
2023-04-23T22:33:51.670Z,11.60
2023-04-23T22:36:20.376Z,11.60
2023-04-23T22:38:50.345Z,11.60
2023-04-23T22:41:18.894Z,11.60
2023-04-23T22:43:47.391Z,11.60
2023-04-23T22:46:16.281Z,11.60
2023-04-23T22:48:45.140Z,11.60
2023-04-23T22:51:14.067Z,11.60
2023-04-23T22:53:42.634Z,11.70
2023-04-23T22:56:12.590Z,11.50
2023-04-23T22:58:41.198Z,11.50
2023-04-23T23:01:09.900Z,11.60
2023-04-23T23:03:38.642Z,11.60
2023-04-23T23:06:07.406Z,11.60
2023-04-23T23:08:36.493Z,11.60
2023-04-23T23:11:05.188Z,11.60
2023-04-23T23:13:35.173Z,11.60
2023-04-23T23:16:05.775Z,11.60
2023-04-23T23:18:34.902Z,11.60
2023-04-23T23:21:03.693Z,11.60
2023-04-23T23:23:32.392Z,11.50
2023-04-23T23:26:03.596Z,11.50
2023-04-23T23:28:34.366Z,11.50
2023-04-23T23:31:03.512Z,11.50
2023-04-23T23:33:32.165Z,11.40
2023-04-23T23:36:00.740Z,11.40
2023-04-23T23:38:29.425Z,11.40
2023-04-23T23:40:57.972Z,11.40
2023-04-23T23:43:26.756Z,11.50
2023-04-23T23:45:56.747Z,11.50
2023-04-23T23:48:25.313Z,11.50
2023-04-23T23:50:53.853Z,11.50
2023-04-23T23:53:22.428Z,11.50
2023-04-23T23:55:51.234Z,11.50
2023-04-23T23:58:20.930Z,11.50
